sensor_id;sensor_type;location;lat;lon;timestamp;temperature;humidity
45803;DHT22;31504;51.716;9.184;2023-04-21T00:01:59;20.40;43.80
45803;DHT22;31504;51.716;9.184;2023-04-21T00:04:59;20.40;43.80
45803;DHT22;31504;51.716;9.184;2023-04-21T00:08:00;20.30;43.70
45803;DHT22;31504;51.716;9.184;2023-04-21T00:11:00;20.30;43.90
45803;DHT22;31504;51.716;9.184;2023-04-21T00:14:01;20.30;43.90
45803;DHT22;31504;51.716;9.184;2023-04-21T00:17:01;20.30;43.90
45803;DHT22;31504;51.716;9.184;2023-04-21T00:20:02;20.40;43.90
45803;DHT22;31504;51.716;9.184;2023-04-21T00:23:04;20.40;43.90
45803;DHT22;31504;51.716;9.184;2023-04-21T00:26:04;20.40;43.90
45803;DHT22;31504;51.716;9.184;2023-04-21T00:29:05;20.40;43.90
45803;DHT22;31504;51.716;9.184;2023-04-21T00:32:05;20.40;43.90
45803;DHT22;31504;51.716;9.184;2023-04-21T00:35:09;20.30;44.00
45803;DHT22;31504;51.716;9.184;2023-04-21T00:38:09;20.40;44.00
45803;DHT22;31504;51.716;9.184;2023-04-21T00:41:10;20.30;43.90
45803;DHT22;31504;51.716;9.184;2023-04-21T00:44:10;20.30;43.90
45803;DHT22;31504;51.716;9.184;2023-04-21T00:47:11;20.30;44.00
45803;DHT22;31504;51.716;9.184;2023-04-21T00:50:11;20.40;44.00
45803;DHT22;31504;51.716;9.184;2023-04-21T00:53:12;20.40;44.00
45803;DHT22;31504;51.716;9.184;2023-04-21T00:56:13;20.40;44.00
45803;DHT22;31504;51.716;9.184;2023-04-21T00:59:14;20.40;44.00
45803;DHT22;31504;51.716;9.184;2023-04-21T01:02:15;20.40;44.00
45803;DHT22;31504;51.716;9.184;2023-04-21T01:05:16;20.40;44.00
45803;DHT22;31504;51.716;9.184;2023-04-21T01:08:17;20.30;43.90
45803;DHT22;31504;51.716;9.184;2023-04-21T01:11:17;20.30;44.00
45803;DHT22;31504;51.716;9.184;2023-04-21T01:14:18;20.40;44.00
45803;DHT22;31504;51.716;9.184;2023-04-21T01:17:18;20.30;44.00
45803;DHT22;31504;51.716;9.184;2023-04-21T01:20:19;20.40;44.10
45803;DHT22;31504;51.716;9.184;2023-04-21T01:23:19;20.40;44.10
45803;DHT22;31504;51.716;9.184;2023-04-21T01:26:20;20.40;44.00
45803;DHT22;31504;51.716;9.184;2023-04-21T01:29:21;20.40;44.00
45803;DHT22;31504;51.716;9.184;2023-04-21T01:32:23;20.40;44.10
45803;DHT22;31504;51.716;9.184;2023-04-21T01:35:24;20.40;44.10
45803;DHT22;31504;51.716;9.184;2023-04-21T01:38:24;20.40;44.10
45803;DHT22;31504;51.716;9.184;2023-04-21T01:41:25;20.40;44.10
45803;DHT22;31504;51.716;9.184;2023-04-21T01:44:25;20.40;44.10
45803;DHT22;31504;51.716;9.184;2023-04-21T01:47:26;20.40;44.20
45803;DHT22;31504;51.716;9.184;2023-04-21T01:50:29;20.30;44.20
45803;DHT22;31504;51.716;9.184;2023-04-21T01:53:30;20.30;44.20
45803;DHT22;31504;51.716;9.184;2023-04-21T01:56:30;20.30;44.20
45803;DHT22;31504;51.716;9.184;2023-04-21T01:59:31;20.40;44.20
45803;DHT22;31504;51.716;9.184;2023-04-21T02:02:31;20.40;44.20
45803;DHT22;31504;51.716;9.184;2023-04-21T02:05:32;20.40;44.20
45803;DHT22;31504;51.716;9.184;2023-04-21T02:08:32;20.40;44.20
45803;DHT22;31504;51.716;9.184;2023-04-21T02:11:33;20.40;44.20
45803;DHT22;31504;51.716;9.184;2023-04-21T02:14:33;20.30;44.20
45803;DHT22;31504;51.716;9.184;2023-04-21T02:17:33;20.30;44.20
45803;DHT22;31504;51.716;9.184;2023-04-21T02:20:34;20.30;44.30
45803;DHT22;31504;51.716;9.184;2023-04-21T02:23:34;20.40;44.30
45803;DHT22;31504;51.716;9.184;2023-04-21T02:26:35;20.30;44.20
45803;DHT22;31504;51.716;9.184;2023-04-21T02:29:35;20.30;44.20
45803;DHT22;31504;51.716;9.184;2023-04-21T02:32:36;20.30;44.20
45803;DHT22;31504;51.716;9.184;2023-04-21T02:35:36;20.40;44.30
45803;DHT22;31504;51.716;9.184;2023-04-21T02:38:37;20.30;44.30
45803;DHT22;31504;51.716;9.184;2023-04-21T02:41:38;20.30;44.30
45803;DHT22;31504;51.716;9.184;2023-04-21T02:44:38;20.30;44.30
45803;DHT22;31504;51.716;9.184;2023-04-21T02:47:38;20.30;44.20
45803;DHT22;31504;51.716;9.184;2023-04-21T02:50:39;20.30;44.30
45803;DHT22;31504;51.716;9.184;2023-04-21T02:53:40;20.30;44.30
45803;DHT22;31504;51.716;9.184;2023-04-21T02:56:41;20.40;44.30
45803;DHT22;31504;51.716;9.184;2023-04-21T02:59:41;20.40;44.50
45803;DHT22;31504;51.716;9.184;2023-04-21T03:02:42;20.40;44.60
45803;DHT22;31504;51.716;9.184;2023-04-21T03:05:42;20.40;44.60
45803;DHT22;31504;51.716;9.184;2023-04-21T03:08:43;20.50;44.70
45803;DHT22;31504;51.716;9.184;2023-04-21T03:11:43;20.50;44.70
45803;DHT22;31504;51.716;9.184;2023-04-21T03:14:44;20.50;45.30
45803;DHT22;31504;51.716;9.184;2023-04-21T03:17:44;20.50;44.70
45803;DHT22;31504;51.716;9.184;2023-04-21T03:20:45;20.60;44.80
45803;DHT22;31504;51.716;9.184;2023-04-21T03:23:45;20.60;44.80
45803;DHT22;31504;51.716;9.184;2023-04-21T03:26:45;20.50;44.70
45803;DHT22;31504;51.716;9.184;2023-04-21T03:29:46;20.60;44.80
45803;DHT22;31504;51.716;9.184;2023-04-21T03:32:46;20.50;44.80
45803;DHT22;31504;51.716;9.184;2023-04-21T03:35:47;20.60;44.90
45803;DHT22;31504;51.716;9.184;2023-04-21T03:38:47;20.50;44.80
45803;DHT22;31504;51.716;9.184;2023-04-21T03:41:48;20.50;44.90
45803;DHT22;31504;51.716;9.184;2023-04-21T03:44:48;20.50;44.90
45803;DHT22;31504;51.716;9.184;2023-04-21T03:47:52;20.50;45.00
45803;DHT22;31504;51.716;9.184;2023-04-21T03:50:52;20.50;45.00
45803;DHT22;31504;51.716;9.184;2023-04-21T03:53:53;20.50;45.00
45803;DHT22;31504;51.716;9.184;2023-04-21T03:56:53;20.50;45.00
45803;DHT22;31504;51.716;9.184;2023-04-21T03:59:53;20.50;45.00
45803;DHT22;31504;51.716;9.184;2023-04-21T04:02:54;20.50;45.00
45803;DHT22;31504;51.716;9.184;2023-04-21T04:05:54;20.50;44.90
45803;DHT22;31504;51.716;9.184;2023-04-21T04:08:55;20.50;44.90
45803;DHT22;31504;51.716;9.184;2023-04-21T04:11:55;20.50;44.80
45803;DHT22;31504;51.716;9.184;2023-04-21T04:14:56;20.50;44.90
45803;DHT22;31504;51.716;9.184;2023-04-21T04:17:57;20.50;44.90
45803;DHT22;31504;51.716;9.184;2023-04-21T04:20:57;20.50;44.80
45803;DHT22;31504;51.716;9.184;2023-04-21T04:23:58;20.50;44.80
45803;DHT22;31504;51.716;9.184;2023-04-21T04:26:58;20.50;44.80
45803;DHT22;31504;51.716;9.184;2023-04-21T04:30:01;20.50;44.80
45803;DHT22;31504;51.716;9.184;2023-04-21T04:33:02;20.50;44.80
45803;DHT22;31504;51.716;9.184;2023-04-21T04:36:03;20.50;44.90
45803;DHT22;31504;51.716;9.184;2023-04-21T04:39:04;20.50;44.90
45803;DHT22;31504;51.716;9.184;2023-04-21T04:42:07;20.50;44.90
45803;DHT22;31504;51.716;9.184;2023-04-21T04:45:11;20.50;44.90
45803;DHT22;31504;51.716;9.184;2023-04-21T04:48:13;20.50;44.90
45803;DHT22;31504;51.716;9.184;2023-04-21T04:51:13;20.50;45.00
45803;DHT22;31504;51.716;9.184;2023-04-21T04:54:13;20.50;45.00
45803;DHT22;31504;51.716;9.184;2023-04-21T04:57:14;20.50;45.00
45803;DHT22;31504;51.716;9.184;2023-04-21T05:00:15;20.50;45.10
45803;DHT22;31504;51.716;9.184;2023-04-21T05:03:15;20.50;45.10
45803;DHT22;31504;51.716;9.184;2023-04-21T05:06:15;20.50;45.10
45803;DHT22;31504;51.716;9.184;2023-04-21T05:09:16;20.50;45.10
45803;DHT22;31504;51.716;9.184;2023-04-21T05:12:16;20.50;45.10
45803;DHT22;31504;51.716;9.184;2023-04-21T05:15:17;20.50;45.00
45803;DHT22;31504;51.716;9.184;2023-04-21T05:18:17;20.50;45.20
45803;DHT22;31504;51.716;9.184;2023-04-21T05:21:21;20.50;45.30
45803;DHT22;31504;51.716;9.184;2023-04-21T05:24:22;20.50;45.50
45803;DHT22;31504;51.716;9.184;2023-04-21T05:27:23;20.50;45.60
45803;DHT22;31504;51.716;9.184;2023-04-21T05:30:23;20.50;45.50
45803;DHT22;31504;51.716;9.184;2023-04-21T05:33:24;20.50;45.50
45803;DHT22;31504;51.716;9.184;2023-04-21T05:36:25;20.60;45.60
45803;DHT22;31504;51.716;9.184;2023-04-21T05:39:27;20.50;45.50
45803;DHT22;31504;51.716;9.184;2023-04-21T05:42:27;20.60;45.60
45803;DHT22;31504;51.716;9.184;2023-04-21T05:45:28;20.60;45.60
45803;DHT22;31504;51.716;9.184;2023-04-21T05:48:28;20.60;45.70
45803;DHT22;31504;51.716;9.184;2023-04-21T05:51:30;20.60;45.70
45803;DHT22;31504;51.716;9.184;2023-04-21T05:54:31;20.60;45.80
45803;DHT22;31504;51.716;9.184;2023-04-21T05:57:32;20.60;45.70
45803;DHT22;31504;51.716;9.184;2023-04-21T06:00:32;20.50;45.60
45803;DHT22;31504;51.716;9.184;2023-04-21T06:03:32;20.60;45.70
45803;DHT22;31504;51.716;9.184;2023-04-21T06:06:33;20.60;45.60
45803;DHT22;31504;51.716;9.184;2023-04-21T06:09:33;20.50;45.60
45803;DHT22;31504;51.716;9.184;2023-04-21T06:12:35;20.50;45.70
45803;DHT22;31504;51.716;9.184;2023-04-21T06:15:35;20.40;45.80
45803;DHT22;31504;51.716;9.184;2023-04-21T06:18:36;20.40;46.00
45803;DHT22;31504;51.716;9.184;2023-04-21T06:21:36;20.30;46.10
45803;DHT22;31504;51.716;9.184;2023-04-21T06:24:37;20.20;46.30
45803;DHT22;31504;51.716;9.184;2023-04-21T06:27:37;20.20;46.40
45803;DHT22;31504;51.716;9.184;2023-04-21T06:30:37;20.20;46.50
45803;DHT22;31504;51.716;9.184;2023-04-21T06:33:38;20.10;46.60
45803;DHT22;31504;51.716;9.184;2023-04-21T06:36:38;20.20;46.60
45803;DHT22;31504;51.716;9.184;2023-04-21T06:39:39;20.30;46.50
45803;DHT22;31504;51.716;9.184;2023-04-21T06:42:39;20.40;46.30
45803;DHT22;31504;51.716;9.184;2023-04-21T06:45:39;20.50;46.20
45803;DHT22;31504;51.716;9.184;2023-04-21T06:48:40;20.50;46.10
45803;DHT22;31504;51.716;9.184;2023-04-21T06:51:40;20.60;46.00
45803;DHT22;31504;51.716;9.184;2023-04-21T06:54:41;20.60;46.00
45803;DHT22;31504;51.716;9.184;2023-04-21T06:57:41;20.70;45.90
45803;DHT22;31504;51.716;9.184;2023-04-21T07:00:42;20.70;45.80
45803;DHT22;31504;51.716;9.184;2023-04-21T07:03:42;20.70;45.80
45803;DHT22;31504;51.716;9.184;2023-04-21T07:06:43;20.80;45.80
45803;DHT22;31504;51.716;9.184;2023-04-21T07:09:43;20.80;45.80
45803;DHT22;31504;51.716;9.184;2023-04-21T07:12:47;20.80;45.80
45803;DHT22;31504;51.716;9.184;2023-04-21T07:15:47;20.80;45.80
45803;DHT22;31504;51.716;9.184;2023-04-21T07:18:48;20.70;45.80
45803;DHT22;31504;51.716;9.184;2023-04-21T07:21:48;20.80;45.80
45803;DHT22;31504;51.716;9.184;2023-04-21T07:24:49;20.70;45.80
45803;DHT22;31504;51.716;9.184;2023-04-21T07:27:49;20.70;45.80
45803;DHT22;31504;51.716;9.184;2023-04-21T07:30:49;20.70;45.90
45803;DHT22;31504;51.716;9.184;2023-04-21T07:33:50;20.70;45.90
45803;DHT22;31504;51.716;9.184;2023-04-21T07:36:51;20.70;45.90
45803;DHT22;31504;51.716;9.184;2023-04-21T07:39:51;20.70;45.90
45803;DHT22;31504;51.716;9.184;2023-04-21T07:42:52;20.60;46.10
45803;DHT22;31504;51.716;9.184;2023-04-21T07:45:52;20.60;46.50
45803;DHT22;31504;51.716;9.184;2023-04-21T07:48:53;20.50;46.80
45803;DHT22;31504;51.716;9.184;2023-04-21T07:51:53;20.50;47.20
45803;DHT22;31504;51.716;9.184;2023-04-21T07:54:53;20.40;47.30
45803;DHT22;31504;51.716;9.184;2023-04-21T07:57:54;20.40;47.50
45803;DHT22;31504;51.716;9.184;2023-04-21T08:00:55;20.40;47.80
45803;DHT22;31504;51.716;9.184;2023-04-21T08:03:55;20.30;48.10
45803;DHT22;31504;51.716;9.184;2023-04-21T08:06:55;20.30;48.40
45803;DHT22;31504;51.716;9.184;2023-04-21T08:09:56;20.30;49.10
45803;DHT22;31504;51.716;9.184;2023-04-21T08:12:56;20.30;49.20
45803;DHT22;31504;51.716;9.184;2023-04-21T08:15:57;20.30;49.90
45803;DHT22;31504;51.716;9.184;2023-04-21T08:18:57;20.30;50.00
45803;DHT22;31504;51.716;9.184;2023-04-21T08:21:58;20.30;49.40
45803;DHT22;31504;51.716;9.184;2023-04-21T08:24:58;20.30;49.30
45803;DHT22;31504;51.716;9.184;2023-04-21T08:27:58;20.30;50.00
45803;DHT22;31504;51.716;9.184;2023-04-21T08:30:59;20.30;50.30
45803;DHT22;31504;51.716;9.184;2023-04-21T08:34:01;20.20;50.00
45803;DHT22;31504;51.716;9.184;2023-04-21T08:37:01;20.20;49.70
45803;DHT22;31504;51.716;9.184;2023-04-21T08:40:05;20.20;49.20
45803;DHT22;31504;51.716;9.184;2023-04-21T08:43:06;20.20;48.90
45803;DHT22;31504;51.716;9.184;2023-04-21T08:46:07;20.10;48.60
45803;DHT22;31504;51.716;9.184;2023-04-21T08:49:08;20.20;48.60
45803;DHT22;31504;51.716;9.184;2023-04-21T08:52:10;20.20;48.60
45803;DHT22;31504;51.716;9.184;2023-04-21T08:55:11;20.20;48.80
45803;DHT22;31504;51.716;9.184;2023-04-21T08:58:12;20.20;49.10
45803;DHT22;31504;51.716;9.184;2023-04-21T09:01:13;20.20;49.00
45803;DHT22;31504;51.716;9.184;2023-04-21T09:04:16;20.20;48.90
45803;DHT22;31504;51.716;9.184;2023-04-21T09:07:28;20.10;48.60
45803;DHT22;31504;51.716;9.184;2023-04-21T09:10:29;20.10;48.50
45803;DHT22;31504;51.716;9.184;2023-04-21T09:13:30;20.10;48.40
45803;DHT22;31504;51.716;9.184;2023-04-21T09:16:31;20.00;48.20
45803;DHT22;31504;51.716;9.184;2023-04-21T09:19:35;20.00;48.10
45803;DHT22;31504;51.716;9.184;2023-04-21T09:22:36;20.00;48.10
45803;DHT22;31504;51.716;9.184;2023-04-21T09:25:37;20.00;48.00
45803;DHT22;31504;51.716;9.184;2023-04-21T09:28:41;20.00;47.90
45803;DHT22;31504;51.716;9.184;2023-04-21T09:31:42;20.00;48.00
45803;DHT22;31504;51.716;9.184;2023-04-21T09:34:43;20.00;48.00
45803;DHT22;31504;51.716;9.184;2023-04-21T09:37:44;20.10;47.80
45803;DHT22;31504;51.716;9.184;2023-04-21T09:40:44;20.10;47.70
45803;DHT22;31504;51.716;9.184;2023-04-21T09:43:46;20.20;47.70
45803;DHT22;31504;51.716;9.184;2023-04-21T09:46:47;20.20;47.60
45803;DHT22;31504;51.716;9.184;2023-04-21T09:49:51;20.20;47.60
45803;DHT22;31504;51.716;9.184;2023-04-21T09:52:53;20.20;47.50
45803;DHT22;31504;51.716;9.184;2023-04-21T09:55:54;20.20;47.40
45803;DHT22;31504;51.716;9.184;2023-04-21T09:58:56;20.30;47.50
45803;DHT22;31504;51.716;9.184;2023-04-21T10:01:57;20.30;47.40
45803;DHT22;31504;51.716;9.184;2023-04-21T10:04:58;20.30;47.40
45803;DHT22;31504;51.716;9.184;2023-04-21T10:07:59;20.30;47.30
45803;DHT22;31504;51.716;9.184;2023-04-21T10:10:59;20.30;47.90
45803;DHT22;31504;51.716;9.184;2023-04-21T10:14:00;20.30;47.20
45803;DHT22;31504;51.716;9.184;2023-04-21T10:17:05;20.30;47.20
45803;DHT22;31504;51.716;9.184;2023-04-21T10:20:06;20.30;47.20
45803;DHT22;31504;51.716;9.184;2023-04-21T10:23:08;20.30;47.20
45803;DHT22;31504;51.716;9.184;2023-04-21T10:26:12;20.30;47.20
45803;DHT22;31504;51.716;9.184;2023-04-21T10:29:21;20.30;47.20
45803;DHT22;31504;51.716;9.184;2023-04-21T10:32:31;20.30;47.20
45803;DHT22;31504;51.716;9.184;2023-04-21T10:35:57;20.40;47.10
45803;DHT22;31504;51.716;9.184;2023-04-21T10:38:59;20.40;47.10
45803;DHT22;31504;51.716;9.184;2023-04-21T10:45:13;20.40;47.10
45803;DHT22;31504;51.716;9.184;2023-04-21T10:48:13;20.40;47.10
45803;DHT22;31504;51.716;9.184;2023-04-21T10:51:14;20.30;47.00
45803;DHT22;31504;51.716;9.184;2023-04-21T10:54:14;20.40;47.00
45803;DHT22;31504;51.716;9.184;2023-04-21T10:57:16;20.40;47.00
45803;DHT22;31504;51.716;9.184;2023-04-21T11:00:21;20.40;47.00
45803;DHT22;31504;51.716;9.184;2023-04-21T11:03:22;20.40;47.00
45803;DHT22;31504;51.716;9.184;2023-04-21T11:06:23;20.40;47.10
45803;DHT22;31504;51.716;9.184;2023-04-21T11:09:24;20.40;47.20
45803;DHT22;31504;51.716;9.184;2023-04-21T11:12:26;20.50;47.20
45803;DHT22;31504;51.716;9.184;2023-04-21T11:15:27;20.50;47.20
45803;DHT22;31504;51.716;9.184;2023-04-21T11:18:31;20.50;47.20
45803;DHT22;31504;51.716;9.184;2023-04-21T11:21:31;20.60;47.20
45803;DHT22;31504;51.716;9.184;2023-04-21T11:24:32;20.70;47.30
45803;DHT22;31504;51.716;9.184;2023-04-21T11:27:33;20.60;47.20
45803;DHT22;31504;51.716;9.184;2023-04-21T11:30:33;20.70;47.30
45803;DHT22;31504;51.716;9.184;2023-04-21T11:33:34;20.80;47.20
45803;DHT22;31504;51.716;9.184;2023-04-21T11:36:36;20.80;47.10
45803;DHT22;31504;51.716;9.184;2023-04-21T11:39:38;20.90;47.20
45803;DHT22;31504;51.716;9.184;2023-04-21T11:42:39;20.90;47.20
45803;DHT22;31504;51.716;9.184;2023-04-21T11:45:40;20.90;47.10
45803;DHT22;31504;51.716;9.184;2023-04-21T11:48:41;20.90;47.10
45803;DHT22;31504;51.716;9.184;2023-04-21T11:51:42;20.90;47.10
45803;DHT22;31504;51.716;9.184;2023-04-21T11:54:43;20.90;47.10
45803;DHT22;31504;51.716;9.184;2023-04-21T11:57:44;20.90;47.10
45803;DHT22;31504;51.716;9.184;2023-04-21T12:00:45;20.90;47.10
45803;DHT22;31504;51.716;9.184;2023-04-21T12:03:54;20.80;47.10
45803;DHT22;31504;51.716;9.184;2023-04-21T12:06:59;20.80;47.10
45803;DHT22;31504;51.716;9.184;2023-04-21T12:10:00;20.80;46.90
45803;DHT22;31504;51.716;9.184;2023-04-21T12:13:01;20.80;46.40
45803;DHT22;31504;51.716;9.184;2023-04-21T12:16:02;20.70;46.00
45803;DHT22;31504;51.716;9.184;2023-04-21T12:19:03;20.70;45.50
45803;DHT22;31504;51.716;9.184;2023-04-21T12:22:10;20.60;45.20
45803;DHT22;31504;51.716;9.184;2023-04-21T12:25:11;20.60;45.20
45803;DHT22;31504;51.716;9.184;2023-04-21T12:28:13;20.60;45.20
45803;DHT22;31504;51.716;9.184;2023-04-21T12:31:14;20.60;45.20
45803;DHT22;31504;51.716;9.184;2023-04-21T12:34:15;20.60;45.40
45803;DHT22;31504;51.716;9.184;2023-04-21T12:37:15;20.60;45.50
45803;DHT22;31504;51.716;9.184;2023-04-21T12:40:16;20.60;45.40
45803;DHT22;31504;51.716;9.184;2023-04-21T12:43:16;20.70;45.70
45803;DHT22;31504;51.716;9.184;2023-04-21T12:46:16;20.70;45.60
45803;DHT22;31504;51.716;9.184;2023-04-21T12:49:17;20.70;45.70
45803;DHT22;31504;51.716;9.184;2023-04-21T12:52:18;20.60;45.60
45803;DHT22;31504;51.716;9.184;2023-04-21T12:55:18;20.60;45.40
45803;DHT22;31504;51.716;9.184;2023-04-21T12:58:19;20.60;45.40
45803;DHT22;31504;51.716;9.184;2023-04-21T13:01:20;20.60;45.50
45803;DHT22;31504;51.716;9.184;2023-04-21T13:04:20;20.70;45.60
45803;DHT22;31504;51.716;9.184;2023-04-21T13:07:21;20.70;45.60
45803;DHT22;31504;51.716;9.184;2023-04-21T13:10:25;20.70;45.70
45803;DHT22;31504;51.716;9.184;2023-04-21T13:13:26;20.70;45.60
45803;DHT22;31504;51.716;9.184;2023-04-21T13:16:26;20.60;45.50
45803;DHT22;31504;51.716;9.184;2023-04-21T13:19:27;20.60;45.30
45803;DHT22;31504;51.716;9.184;2023-04-21T13:22:28;20.60;45.20
45803;DHT22;31504;51.716;9.184;2023-04-21T13:25:28;20.50;45.10
45803;DHT22;31504;51.716;9.184;2023-04-21T13:28:29;20.60;45.20
45803;DHT22;31504;51.716;9.184;2023-04-21T13:31:29;20.60;45.20
45803;DHT22;31504;51.716;9.184;2023-04-21T13:34:31;20.60;45.30
45803;DHT22;31504;51.716;9.184;2023-04-21T13:37:32;20.60;45.30
45803;DHT22;31504;51.716;9.184;2023-04-21T13:40:32;20.50;45.20
45803;DHT22;31504;51.716;9.184;2023-04-21T13:43:33;20.60;45.40
45803;DHT22;31504;51.716;9.184;2023-04-21T13:46:33;20.60;46.10
45803;DHT22;31504;51.716;9.184;2023-04-21T13:49:34;20.60;45.60
45803;DHT22;31504;51.716;9.184;2023-04-21T13:52:34;20.60;45.60
45803;DHT22;31504;51.716;9.184;2023-04-21T13:55:35;20.60;45.70
45803;DHT22;31504;51.716;9.184;2023-04-21T13:58:36;20.60;45.80
45803;DHT22;31504;51.716;9.184;2023-04-21T14:01:36;20.60;45.80
45803;DHT22;31504;51.716;9.184;2023-04-21T14:04:37;20.60;45.90
45803;DHT22;31504;51.716;9.184;2023-04-21T14:07:37;20.60;45.80
45803;DHT22;31504;51.716;9.184;2023-04-21T14:10:38;20.60;45.90
45803;DHT22;31504;51.716;9.184;2023-04-21T14:13:38;20.60;45.90
45803;DHT22;31504;51.716;9.184;2023-04-21T14:16:38;20.60;45.80
45803;DHT22;31504;51.716;9.184;2023-04-21T14:19:39;20.60;45.80
45803;DHT22;31504;51.716;9.184;2023-04-21T14:22:39;20.60;45.90
45803;DHT22;31504;51.716;9.184;2023-04-21T14:25:40;20.60;46.00
45803;DHT22;31504;51.716;9.184;2023-04-21T14:28:40;20.60;46.00
45803;DHT22;31504;51.716;9.184;2023-04-21T14:31:41;20.60;46.10
45803;DHT22;31504;51.716;9.184;2023-04-21T14:34:42;20.70;46.20
45803;DHT22;31504;51.716;9.184;2023-04-21T14:37:42;20.70;46.20
45803;DHT22;31504;51.716;9.184;2023-04-21T14:40:42;20.90;46.30
45803;DHT22;31504;51.716;9.184;2023-04-21T14:43:43;20.90;46.40
45803;DHT22;31504;51.716;9.184;2023-04-21T14:46:43;20.90;46.40
45803;DHT22;31504;51.716;9.184;2023-04-21T14:49:44;21.00;46.50
45803;DHT22;31504;51.716;9.184;2023-04-21T14:52:44;21.00;46.60
45803;DHT22;31504;51.716;9.184;2023-04-21T14:55:48;21.10;46.70
45803;DHT22;31504;51.716;9.184;2023-04-21T14:58:48;21.10;46.90
45803;DHT22;31504;51.716;9.184;2023-04-21T15:01:49;21.10;47.00
45803;DHT22;31504;51.716;9.184;2023-04-21T15:04:50;21.10;47.20
45803;DHT22;31504;51.716;9.184;2023-04-21T15:07:50;21.10;47.40
45803;DHT22;31504;51.716;9.184;2023-04-21T15:10:51;21.10;47.60
45803;DHT22;31504;51.716;9.184;2023-04-21T15:13:51;21.10;47.70
45803;DHT22;31504;51.716;9.184;2023-04-21T15:16:52;21.10;47.90
45803;DHT22;31504;51.716;9.184;2023-04-21T15:19:52;21.10;48.00
45803;DHT22;31504;51.716;9.184;2023-04-21T15:22:52;21.10;48.30
45803;DHT22;31504;51.716;9.184;2023-04-21T15:25:53;21.10;48.30
45803;DHT22;31504;51.716;9.184;2023-04-21T15:28:53;21.20;48.40
45803;DHT22;31504;51.716;9.184;2023-04-21T15:31:54;21.10;48.40
45803;DHT22;31504;51.716;9.184;2023-04-21T15:34:54;21.10;48.50
45803;DHT22;31504;51.716;9.184;2023-04-21T15:37:55;21.20;48.50
45803;DHT22;31504;51.716;9.184;2023-04-21T15:40:55;21.10;48.70
45803;DHT22;31504;51.716;9.184;2023-04-21T15:43:56;21.10;48.70
45803;DHT22;31504;51.716;9.184;2023-04-21T15:46:57;21.10;48.50
45803;DHT22;31504;51.716;9.184;2023-04-21T15:49:57;21.00;48.00
45803;DHT22;31504;51.716;9.184;2023-04-21T15:52:58;20.90;47.80
45803;DHT22;31504;51.716;9.184;2023-04-21T15:55:58;20.90;47.70
45803;DHT22;31504;51.716;9.184;2023-04-21T15:58:59;20.90;47.80
45803;DHT22;31504;51.716;9.184;2023-04-21T16:01:59;20.90;47.80
45803;DHT22;31504;51.716;9.184;2023-04-21T16:05:00;20.90;47.80
45803;DHT22;31504;51.716;9.184;2023-04-21T16:08:01;20.90;47.90
45803;DHT22;31504;51.716;9.184;2023-04-21T16:11:01;20.90;47.80
45803;DHT22;31504;51.716;9.184;2023-04-21T16:14:02;20.90;47.80
45803;DHT22;31504;51.716;9.184;2023-04-21T16:17:02;20.90;47.80
45803;DHT22;31504;51.716;9.184;2023-04-21T16:20:03;20.90;47.80
45803;DHT22;31504;51.716;9.184;2023-04-21T16:23:06;20.90;47.80
45803;DHT22;31504;51.716;9.184;2023-04-21T16:26:07;20.90;47.70
45803;DHT22;31504;51.716;9.184;2023-04-21T16:29:08;20.90;47.80
45803;DHT22;31504;51.716;9.184;2023-04-21T16:32:08;20.90;47.80
45803;DHT22;31504;51.716;9.184;2023-04-21T16:35:09;20.90;47.80
45803;DHT22;31504;51.716;9.184;2023-04-21T16:38:10;20.90;47.80
45803;DHT22;31504;51.716;9.184;2023-04-21T16:41:11;20.90;47.80
45803;DHT22;31504;51.716;9.184;2023-04-21T16:44:11;20.90;47.80
45803;DHT22;31504;51.716;9.184;2023-04-21T16:47:12;20.90;47.70
45803;DHT22;31504;51.716;9.184;2023-04-21T16:50:12;20.90;47.70
45803;DHT22;31504;51.716;9.184;2023-04-21T16:53:13;20.90;47.50
45803;DHT22;31504;51.716;9.184;2023-04-21T16:56:13;20.90;47.50
45803;DHT22;31504;51.716;9.184;2023-04-21T16:59:14;20.90;47.50
45803;DHT22;31504;51.716;9.184;2023-04-21T17:02:18;20.80;47.40
45803;DHT22;31504;51.716;9.184;2023-04-21T17:05:18;20.80;47.30
45803;DHT22;31504;51.716;9.184;2023-04-21T17:08:19;20.80;47.30
45803;DHT22;31504;51.716;9.184;2023-04-21T17:11:20;20.80;47.30
45803;DHT22;31504;51.716;9.184;2023-04-21T17:14:20;20.80;47.30
45803;DHT22;31504;51.716;9.184;2023-04-21T17:17:20;20.80;47.10
45803;DHT22;31504;51.716;9.184;2023-04-21T17:20:21;20.80;47.10
45803;DHT22;31504;51.716;9.184;2023-04-21T17:23:21;20.80;47.00
45803;DHT22;31504;51.716;9.184;2023-04-21T17:26:23;20.80;46.80
45803;DHT22;31504;51.716;9.184;2023-04-21T17:29:23;20.80;46.70
45803;DHT22;31504;51.716;9.184;2023-04-21T17:32:25;20.80;46.60
45803;DHT22;31504;51.716;9.184;2023-04-21T17:35:25;20.80;46.50
45803;DHT22;31504;51.716;9.184;2023-04-21T17:38:26;20.80;46.30
45803;DHT22;31504;51.716;9.184;2023-04-21T17:41:26;20.70;46.10
45803;DHT22;31504;51.716;9.184;2023-04-21T17:44:26;20.70;46.00
45803;DHT22;31504;51.716;9.184;2023-04-21T17:47:27;20.70;45.90
45803;DHT22;31504;51.716;9.184;2023-04-21T17:50:27;20.80;45.90
45803;DHT22;31504;51.716;9.184;2023-04-21T17:53:29;20.70;45.80
45803;DHT22;31504;51.716;9.184;2023-04-21T17:56:30;20.70;45.70
45803;DHT22;31504;51.716;9.184;2023-04-21T17:59:30;20.70;45.50
45803;DHT22;31504;51.716;9.184;2023-04-21T18:02:31;20.70;45.40
45803;DHT22;31504;51.716;9.184;2023-04-21T18:05:31;20.70;45.30
45803;DHT22;31504;51.716;9.184;2023-04-21T18:08:32;20.70;45.10
45803;DHT22;31504;51.716;9.184;2023-04-21T18:11:32;20.70;45.10
45803;DHT22;31504;51.716;9.184;2023-04-21T18:14:33;20.60;45.60
45803;DHT22;31504;51.716;9.184;2023-04-21T18:17:33;20.70;45.00
45803;DHT22;31504;51.716;9.184;2023-04-21T18:20:36;20.60;44.90
45803;DHT22;31504;51.716;9.184;2023-04-21T18:23:36;20.60;45.00
45803;DHT22;31504;51.716;9.184;2023-04-21T18:26:37;20.60;45.10
45803;DHT22;31504;51.716;9.184;2023-04-21T18:29:37;20.60;44.90
45803;DHT22;31504;51.716;9.184;2023-04-21T18:32:38;20.60;44.80
45803;DHT22;31504;51.716;9.184;2023-04-21T18:35:39;20.60;44.70
45803;DHT22;31504;51.716;9.184;2023-04-21T18:38:40;20.60;44.70
45803;DHT22;31504;51.716;9.184;2023-04-21T18:41:41;20.60;44.90
45803;DHT22;31504;51.716;9.184;2023-04-21T18:44:42;20.60;44.80
45803;DHT22;31504;51.716;9.184;2023-04-21T18:47:42;20.60;44.70
45803;DHT22;31504;51.716;9.184;2023-04-21T18:50:44;20.60;44.70
45803;DHT22;31504;51.716;9.184;2023-04-21T18:53:46;20.60;44.70
45803;DHT22;31504;51.716;9.184;2023-04-21T18:56:46;20.60;44.70
45803;DHT22;31504;51.716;9.184;2023-04-21T18:59:46;20.60;44.50
45803;DHT22;31504;51.716;9.184;2023-04-21T19:02:47;20.60;44.70
45803;DHT22;31504;51.716;9.184;2023-04-21T19:05:49;20.60;44.70